Dayton, OH (45402)

3:39 PM EST on February 22, 2017 (GMT -0500)
Oregon Historic District | | Change Station

Elev 0 ft 39.75 °N, 84.18 °W | Updated 12 seconds ago

Overcast
Overcast
63.3 °F
Feels Like 63.3 °F
N
0.0
Wind Variable Wind from SE
Gusts 0.0 mph

Today
High -- | Low -- °F
--% Chance of Precip.
Yesterday
High -- | Low -- °F
Precip. -- in
Pressure 29.83 in
Visibility 10.0 miles
Clouds Overcast 1000 ft
Dew Point 57 °F
Humidity 80%
Rainfall 0.02 in
Snow Depth Not available.
7:19 AM 6:21 PM
Waning Crescent, 15% visible
METAR KFFO 221958Z 19007KT 10SM OVC010 16/16 A2982 RMK AO2A SLP100 T01590159
Pressure 29.83 in
Visibility 10.0 miles
Clouds Overcast 1000 ft
Dew Point 57 °F
Humidity 80%
Rainfall 0.02 in
Snow Depth Not available.
7:19 AM 6:21 PM
Waning Crescent, 15% visible
METAR KFFO 221958Z 19007KT 10SM OVC010 16/16 A2982 RMK AO2A SLP100 T01590159

Get Your Daily Forecast Email!

Thanks for signing up!

Be on the lookout for a verification email in your inbox.

You'll start receiving the daily forecast at 8 AM.

×

10-Day Weather Forecast

Almanac

Astronomy

Feb. 22, 2017 Rise Set
Actual Time
Civil Twilight
Nautical Twilight
Astronomical Twilight
Moon
Length of Visible Light
Length of Day
Tomorrow will be .
, % of the Moon is Illuminated

Today's Extremes

State Highs State Lows

Community

WunderPhotos

Upload Photos

1,962,540 photos uploaded!

WunderBlog® & News

Nearby

Air Quality

  Air Quality AQ Index Pollutant
Not available.

Snow Depth

Station Depth Elevation

Earthquake Activity

City Distance Mag. Time & Date
Minimum magnitude displayed is 2.5.

Coastal Water Temperatures

Place Temperature

Stations

Nearby Weather Stations

Station Location Temp. Windchill Dew Point Humidity Wind Precip. Elev Updated Type
                   

Watches & Warnings

There are currently no watches in effect.